createdAt,value
2018-07-31T00:00:12.394Z,31.40
2018-07-31T00:02:40.642Z,31.80
2018-07-31T00:05:08.858Z,32.00
2018-07-31T00:07:37.081Z,32.30
2018-07-31T00:10:05.740Z,31.60
2018-07-31T00:12:34.155Z,31.90
2018-07-31T00:15:02.371Z,32.00
2018-07-31T00:17:30.609Z,32.40
2018-07-31T00:19:58.806Z,32.40
2018-07-31T00:22:27.012Z,32.30
2018-07-31T00:24:55.289Z,32.80
2018-07-31T00:27:23.600Z,32.80
2018-07-31T00:29:51.870Z,32.00
2018-07-31T00:32:20.617Z,32.10
2018-07-31T00:34:48.932Z,32.00
2018-07-31T00:37:17.193Z,31.80
2018-07-31T00:39:45.485Z,32.60
2018-07-31T00:42:13.815Z,32.60
2018-07-31T00:44:42.160Z,33.00
2018-07-31T00:47:10.638Z,33.10
2018-07-31T00:49:38.865Z,33.30
2018-07-31T00:52:07.190Z,33.80
2018-07-31T00:54:35.396Z,34.00
2018-07-31T00:57:03.621Z,34.00
2018-07-31T00:59:31.835Z,34.60
2018-07-31T01:02:00.233Z,34.50
2018-07-31T01:04:28.456Z,34.80
2018-07-31T01:06:56.810Z,34.70
2018-07-31T01:09:25.038Z,34.70
2018-07-31T01:11:53.353Z,35.00
2018-07-31T01:14:21.577Z,35.20
2018-07-31T01:16:50.030Z,35.20
2018-07-31T01:21:46.664Z,34.50
2018-07-31T01:24:14.873Z,34.50
2018-07-31T01:26:43.082Z,35.00
2018-07-31T01:29:11.882Z,35.40
2018-07-31T01:31:40.161Z,35.10
2018-07-31T01:34:08.389Z,34.80
2018-07-31T01:36:36.672Z,34.80
2018-07-31T01:39:07.964Z,34.70
2018-07-31T01:41:36.168Z,34.50
2018-07-31T01:44:04.582Z,34.90
2018-07-31T01:46:32.829Z,35.00
2018-07-31T01:49:01.683Z,34.90
2018-07-31T01:51:29.946Z,35.50
2018-07-31T01:53:58.177Z,35.30
2018-07-31T01:56:26.549Z,35.60
2018-07-31T01:58:54.852Z,35.60
2018-07-31T02:01:23.133Z,36.00
2018-07-31T02:03:51.518Z,36.30
2018-07-31T02:06:24.289Z,36.70
2018-07-31T02:11:20.665Z,36.50
2018-07-31T02:13:49.716Z,36.50
2018-07-31T02:16:17.994Z,36.50
2018-07-31T02:18:46.338Z,36.70
2018-07-31T02:21:14.697Z,36.50
2018-07-31T02:23:42.917Z,36.80
2018-07-31T02:26:11.141Z,36.90
2018-07-31T02:28:39.395Z,36.60
2018-07-31T02:31:07.641Z,36.80
2018-07-31T02:33:35.854Z,36.10
2018-07-31T02:36:04.182Z,37.10
2018-07-31T02:38:32.489Z,38.00
2018-07-31T02:41:00.742Z,37.40
2018-07-31T02:43:28.965Z,37.40
2018-07-31T02:45:57.301Z,37.20
2018-07-31T02:48:25.769Z,37.30
2018-07-31T02:50:53.999Z,37.20
2018-07-31T02:53:22.233Z,37.40
2018-07-31T02:55:50.462Z,37.30
2018-07-31T02:58:18.979Z,37.20
2018-07-31T03:00:47.149Z,37.20
2018-07-31T03:03:15.346Z,37.00
2018-07-31T03:05:43.556Z,37.30
2018-07-31T03:08:12.469Z,37.00
2018-07-31T03:10:40.707Z,36.70
2018-07-31T03:13:08.906Z,36.50
2018-07-31T03:15:37.361Z,37.50
2018-07-31T03:18:05.594Z,37.20
2018-07-31T03:20:33.986Z,37.00
2018-07-31T03:23:02.233Z,37.00
2018-07-31T03:25:30.667Z,36.60
2018-07-31T03:27:58.900Z,36.90
2018-07-31T03:30:27.300Z,37.00
2018-07-31T03:32:55.514Z,37.30
2018-07-31T03:35:23.732Z,37.00
2018-07-31T03:37:52.000Z,37.40
2018-07-31T03:40:20.813Z,37.60
2018-07-31T03:42:49.068Z,38.30
2018-07-31T03:45:17.300Z,37.70
2018-07-31T03:50:13.471Z,37.30
2018-07-31T03:52:41.998Z,37.30
2018-07-31T03:55:10.434Z,37.60
2018-07-31T03:57:38.645Z,37.70
2018-07-31T04:00:07.167Z,37.90
2018-07-31T04:02:35.629Z,37.80
2018-07-31T04:05:03.907Z,37.70
2018-07-31T04:07:32.149Z,37.50
2018-07-31T04:10:00.510Z,37.60
2018-07-31T04:12:28.778Z,37.70
2018-07-31T04:14:57.600Z,37.90
2018-07-31T04:17:26.206Z,37.90
2018-07-31T04:19:54.487Z,38.30
2018-07-31T04:22:22.726Z,38.70
2018-07-31T04:24:50.952Z,38.20
2018-07-31T04:27:19.249Z,38.40
2018-07-31T04:29:47.474Z,38.30
2018-07-31T04:32:15.721Z,38.30
2018-07-31T04:34:43.951Z,38.80
2018-07-31T04:37:12.290Z,38.30
2018-07-31T04:39:40.537Z,38.20
2018-07-31T04:42:08.778Z,38.40
2018-07-31T04:44:36.989Z,38.20
2018-07-31T04:47:06.477Z,38.00
2018-07-31T04:49:34.818Z,38.10
2018-07-31T04:52:03.090Z,38.20
2018-07-31T04:54:31.354Z,38.00
2018-07-31T04:56:59.632Z,37.90
2018-07-31T04:59:28.894Z,38.00
2018-07-31T05:04:25.315Z,38.00
2018-07-31T05:06:53.448Z,38.00
2018-07-31T05:09:21.707Z,37.80
2018-07-31T05:14:18.429Z,37.70
2018-07-31T05:16:46.665Z,37.90
2018-07-31T05:19:14.881Z,37.90
2018-07-31T05:21:43.186Z,37.90
2018-07-31T05:24:11.403Z,37.90
2018-07-31T05:26:39.618Z,38.00
2018-07-31T05:29:07.883Z,38.10
2018-07-31T05:31:36.100Z,38.10
2018-07-31T05:34:04.481Z,38.40
2018-07-31T05:36:32.768Z,39.00
2018-07-31T05:39:00.999Z,38.30
2018-07-31T05:41:29.373Z,38.20
2018-07-31T05:43:58.201Z,38.00
2018-07-31T05:46:26.533Z,37.90
2018-07-31T05:48:55.248Z,37.80
2018-07-31T05:51:23.452Z,37.70
2018-07-31T05:53:51.668Z,37.60
2018-07-31T05:56:19.910Z,37.40
2018-07-31T05:58:48.270Z,37.30
2018-07-31T06:01:16.528Z,37.10
2018-07-31T06:03:44.840Z,37.10
2018-07-31T06:06:13.151Z,37.10
2018-07-31T06:08:41.454Z,37.00
2018-07-31T06:11:09.701Z,37.10
2018-07-31T06:13:37.937Z,36.80
2018-07-31T06:16:06.204Z,36.60
2018-07-31T06:18:34.490Z,36.50
2018-07-31T06:21:02.720Z,36.60
2018-07-31T06:23:30.974Z,36.50
2018-07-31T06:25:59.206Z,36.30
2018-07-31T06:28:27.500Z,36.60
2018-07-31T06:30:55.886Z,36.40
2018-07-31T06:33:24.102Z,36.50
2018-07-31T06:35:52.769Z,36.30
2018-07-31T06:38:20.996Z,36.10
2018-07-31T06:40:49.222Z,36.30
2018-07-31T06:43:17.457Z,35.40
2018-07-31T06:45:45.663Z,35.70
2018-07-31T06:48:13.922Z,35.40
2018-07-31T06:50:42.256Z,35.10
2018-07-31T06:53:10.545Z,35.20
2018-07-31T06:55:38.774Z,34.70
2018-07-31T06:58:07.300Z,34.50
2018-07-31T07:00:35.582Z,33.80
2018-07-31T07:03:04.763Z,33.50
2018-07-31T07:05:32.975Z,33.50
2018-07-31T07:08:01.213Z,32.90
2018-07-31T07:10:29.521Z,32.40
2018-07-31T07:12:57.893Z,32.50
2018-07-31T07:15:26.224Z,32.30
2018-07-31T07:17:54.518Z,32.20
2018-07-31T07:20:22.753Z,32.50
2018-07-31T07:22:51.042Z,32.00
2018-07-31T07:25:19.814Z,31.60
2018-07-31T07:27:48.111Z,30.50
2018-07-31T07:30:16.910Z,29.90
2018-07-31T07:32:45.186Z,29.20
2018-07-31T07:35:13.402Z,27.70
2018-07-31T07:37:41.706Z,27.30
2018-07-31T07:40:09.963Z,27.10
2018-07-31T07:42:38.123Z,27.00
2018-07-31T07:45:06.329Z,26.40
2018-07-31T07:47:34.633Z,25.30
2018-07-31T07:50:02.885Z,24.40
2018-07-31T07:54:59.126Z,22.20
2018-07-31T07:57:27.389Z,21.50
2018-07-31T07:59:55.742Z,21.10
2018-07-31T08:02:23.953Z,20.10
2018-07-31T08:04:52.302Z,19.40
2018-07-31T08:07:20.570Z,18.80
2018-07-31T08:09:49.105Z,18.00
2018-07-31T08:12:17.317Z,17.70
2018-07-31T08:14:45.525Z,17.40
2018-07-31T08:17:13.759Z,17.40
2018-07-31T08:19:42.065Z,17.00
2018-07-31T08:22:10.258Z,16.60
2018-07-31T08:24:38.462Z,16.70
2018-07-31T08:27:06.729Z,16.60
2018-07-31T08:29:35.167Z,16.10
2018-07-31T08:32:03.349Z,16.20
2018-07-31T08:34:31.568Z,15.30
2018-07-31T08:36:59.741Z,15.10
2018-07-31T08:39:28.309Z,14.80
2018-07-31T08:41:56.534Z,14.20
2018-07-31T08:44:24.721Z,14.60
2018-07-31T08:46:52.953Z,14.70
2018-07-31T08:49:21.160Z,14.10
2018-07-31T08:51:49.413Z,14.20
2018-07-31T08:54:17.606Z,14.00
2018-07-31T08:56:45.825Z,13.40
2018-07-31T08:59:14.020Z,13.30
2018-07-31T09:01:42.838Z,13.30
2018-07-31T09:04:11.114Z,13.20
2018-07-31T09:09:08.802Z,13.10
2018-07-31T09:11:36.987Z,12.70
2018-07-31T09:14:07.708Z,12.70
2018-07-31T09:16:36.005Z,12.60
2018-07-31T09:19:04.360Z,12.50
2018-07-31T09:21:32.571Z,12.60
2018-07-31T09:24:00.765Z,12.00
2018-07-31T09:26:29.091Z,12.20
2018-07-31T09:28:58.133Z,12.30
2018-07-31T09:31:26.395Z,12.00
2018-07-31T09:33:54.569Z,11.90
2018-07-31T09:36:22.913Z,11.80
2018-07-31T09:38:51.057Z,11.60
2018-07-31T09:41:19.353Z,11.50
2018-07-31T09:43:47.626Z,11.30
2018-07-31T09:46:16.405Z,11.70
2018-07-31T09:48:44.590Z,11.40
2018-07-31T09:51:13.265Z,12.20
2018-07-31T09:53:41.446Z,11.80
2018-07-31T09:56:09.625Z,11.60
2018-07-31T09:58:37.817Z,11.60
2018-07-31T10:01:11.450Z,11.90
2018-07-31T10:03:39.619Z,12.00
2018-07-31T10:06:07.781Z,11.60
2018-07-31T10:08:35.978Z,11.50
2018-07-31T10:11:04.340Z,11.20
2018-07-31T10:13:32.542Z,10.90
2018-07-31T10:16:00.722Z,10.90
2018-07-31T10:18:28.995Z,10.80
2018-07-31T10:20:57.362Z,10.50
2018-07-31T10:23:25.607Z,10.70
2018-07-31T10:25:53.762Z,10.50
2018-07-31T10:28:21.946Z,10.80
2018-07-31T10:30:50.415Z,10.90
2018-07-31T10:33:19.073Z,10.80
2018-07-31T10:35:47.294Z,10.60
2018-07-31T10:38:15.465Z,10.40
2018-07-31T10:40:43.709Z,10.40
2018-07-31T10:43:11.954Z,10.60
2018-07-31T10:45:40.178Z,10.40
2018-07-31T10:48:08.389Z,10.40
2018-07-31T10:50:36.605Z,10.20
2018-07-31T10:53:04.796Z,10.30
2018-07-31T10:55:33.133Z,10.50
2018-07-31T10:58:01.279Z,10.20
2018-07-31T11:02:57.602Z,9.90
2018-07-31T11:05:25.735Z,10.00
2018-07-31T11:07:53.956Z,9.90
2018-07-31T11:10:22.430Z,10.20
2018-07-31T11:12:50.656Z,10.30
2018-07-31T11:15:19.303Z,10.40
2018-07-31T11:17:47.525Z,10.60
2018-07-31T11:20:15.819Z,10.30
2018-07-31T11:22:44.110Z,10.60
2018-07-31T11:25:12.580Z,10.10
2018-07-31T11:27:41.102Z,10.10
2018-07-31T11:30:09.326Z,10.00
2018-07-31T11:32:37.742Z,10.00
2018-07-31T11:35:06.154Z,9.90
2018-07-31T11:37:34.773Z,10.20
2018-07-31T11:40:03.233Z,9.90
2018-07-31T11:42:31.534Z,9.90
2018-07-31T11:45:00.020Z,9.80
2018-07-31T11:47:28.414Z,10.00
2018-07-31T11:49:57.024Z,10.00
2018-07-31T11:52:25.223Z,10.10
2018-07-31T11:54:53.451Z,10.00
2018-07-31T11:57:21.694Z,9.70
2018-07-31T11:59:50.327Z,9.80
2018-07-31T12:02:19.045Z,9.80
2018-07-31T12:04:47.238Z,9.60
2018-07-31T12:07:15.554Z,9.50
2018-07-31T12:09:43.768Z,9.40
2018-07-31T12:12:12.030Z,9.70
2018-07-31T12:14:40.289Z,9.70
2018-07-31T12:17:08.497Z,9.70
2018-07-31T12:22:05.053Z,9.80
2018-07-31T12:24:33.242Z,10.30
2018-07-31T12:27:01.572Z,9.90
2018-07-31T12:29:29.941Z,10.10
2018-07-31T12:31:58.276Z,10.00
2018-07-31T12:34:26.588Z,10.00
2018-07-31T12:36:54.885Z,10.00
2018-07-31T12:39:23.180Z,9.90
2018-07-31T12:41:51.405Z,10.00
2018-07-31T12:44:19.621Z,9.80
2018-07-31T12:46:48.254Z,10.00
2018-07-31T12:49:16.634Z,9.90
2018-07-31T12:51:44.817Z,10.00
2018-07-31T12:54:13.106Z,10.20
2018-07-31T12:56:41.482Z,10.70
2018-07-31T12:59:09.916Z,10.80
2018-07-31T13:01:38.142Z,10.70
2018-07-31T13:04:06.385Z,11.20
2018-07-31T13:06:34.713Z,11.40
2018-07-31T13:09:03.091Z,12.20
2018-07-31T13:11:31.406Z,12.70
2018-07-31T13:13:59.606Z,13.30
2018-07-31T13:16:27.948Z,13.40
2018-07-31T13:18:56.278Z,13.80
2018-07-31T13:21:24.429Z,14.00
2018-07-31T13:23:52.637Z,13.80
2018-07-31T13:26:20.986Z,13.70
2018-07-31T13:28:49.217Z,14.20
2018-07-31T13:31:17.401Z,14.20
2018-07-31T13:33:45.772Z,14.70
2018-07-31T13:36:13.974Z,15.10
2018-07-31T13:38:42.300Z,15.00
2018-07-31T13:41:10.505Z,14.30
2018-07-31T13:43:38.763Z,13.90
2018-07-31T13:46:07.145Z,14.50
2018-07-31T13:48:35.565Z,13.90
2018-07-31T13:51:03.854Z,13.70
2018-07-31T13:53:32.098Z,13.80
2018-07-31T13:56:00.376Z,14.00
2018-07-31T13:58:28.575Z,13.30
2018-07-31T14:00:57.149Z,13.70
2018-07-31T14:03:25.321Z,14.60
2018-07-31T14:05:53.573Z,15.10
2018-07-31T14:08:21.958Z,15.50
2018-07-31T14:10:50.183Z,15.70
2018-07-31T14:13:18.412Z,15.00
2018-07-31T14:15:46.593Z,14.80
2018-07-31T14:18:14.835Z,13.80
2018-07-31T14:20:43.062Z,13.50
2018-07-31T14:23:11.408Z,12.60
2018-07-31T14:25:39.689Z,12.30
2018-07-31T14:28:07.893Z,12.00
2018-07-31T14:30:36.149Z,11.80
2018-07-31T14:33:04.273Z,11.40
2018-07-31T14:35:32.498Z,11.30
2018-07-31T14:38:00.682Z,11.40
2018-07-31T14:40:28.906Z,11.40
2018-07-31T14:42:57.172Z,11.70
2018-07-31T14:45:25.321Z,11.70
2018-07-31T14:47:53.629Z,11.70
2018-07-31T14:50:21.820Z,11.80
2018-07-31T14:52:50.181Z,11.60
2018-07-31T14:55:18.406Z,11.80
2018-07-31T14:57:46.598Z,11.70
2018-07-31T15:00:14.826Z,11.70
2018-07-31T15:02:43.157Z,11.60
2018-07-31T15:05:11.830Z,11.70
2018-07-31T15:07:40.029Z,11.50
2018-07-31T15:10:08.702Z,11.50
2018-07-31T15:12:36.946Z,11.80
2018-07-31T15:17:34.557Z,11.90
2018-07-31T15:20:02.741Z,11.90
2018-07-31T15:22:31.222Z,11.60
2018-07-31T15:24:59.409Z,11.90
2018-07-31T15:27:27.682Z,11.90
2018-07-31T15:29:55.878Z,11.50
2018-07-31T15:32:24.056Z,11.40
2018-07-31T15:34:52.254Z,11.20
2018-07-31T15:40:07.899Z,11.30
2018-07-31T15:42:36.093Z,11.10
2018-07-31T15:45:04.565Z,11.30
2018-07-31T15:47:32.809Z,11.30
2018-07-31T15:50:01.169Z,11.60
2018-07-31T15:52:29.455Z,12.00
2018-07-31T15:54:57.717Z,12.00
2018-07-31T15:57:26.553Z,12.40
2018-07-31T15:59:55.041Z,12.30
2018-07-31T16:02:23.282Z,12.20
2018-07-31T16:04:51.492Z,12.50
2018-07-31T16:07:19.784Z,12.40
2018-07-31T16:09:47.948Z,12.50
2018-07-31T16:14:44.317Z,12.60
2018-07-31T16:17:12.676Z,12.70
2018-07-31T16:19:41.733Z,12.80
2018-07-31T16:22:09.926Z,13.00
2018-07-31T16:24:38.168Z,12.40
2018-07-31T16:27:06.578Z,12.60
2018-07-31T16:29:34.878Z,12.90
2018-07-31T16:32:03.109Z,12.90
2018-07-31T16:34:31.546Z,13.10
2018-07-31T16:36:59.837Z,13.20
2018-07-31T16:39:28.079Z,13.50
2018-07-31T16:41:56.313Z,13.60
2018-07-31T16:44:24.600Z,13.50
2018-07-31T16:46:52.876Z,14.40
2018-07-31T16:49:21.245Z,15.20
2018-07-31T16:51:49.852Z,15.00
2018-07-31T16:54:18.075Z,15.20
2018-07-31T16:56:46.360Z,15.80
2018-07-31T16:59:14.631Z,16.80
2018-07-31T17:01:45.770Z,17.00
2018-07-31T17:04:14.105Z,16.90
2018-07-31T17:06:42.382Z,17.00
2018-07-31T17:09:10.669Z,16.60
2018-07-31T17:11:38.895Z,17.10
2018-07-31T17:14:07.138Z,18.10
2018-07-31T17:16:35.393Z,17.50
2018-07-31T17:19:04.219Z,18.10
2018-07-31T17:21:32.788Z,17.50
2018-07-31T17:24:00.985Z,18.00
2018-07-31T17:26:29.238Z,18.40
2018-07-31T17:28:57.546Z,18.30
2018-07-31T17:31:25.930Z,18.30
2018-07-31T17:33:54.197Z,18.80
2018-07-31T17:36:22.479Z,19.10
2018-07-31T17:38:50.826Z,18.80
2018-07-31T17:41:19.057Z,19.00
2018-07-31T17:43:47.265Z,19.30
2018-07-31T17:46:15.485Z,19.50
2018-07-31T17:48:43.854Z,19.50
2018-07-31T17:51:12.217Z,19.60
2018-07-31T17:53:40.434Z,19.50
2018-07-31T17:56:08.700Z,19.40
2018-07-31T17:58:36.922Z,19.30
2018-07-31T18:01:05.452Z,19.60
2018-07-31T18:03:35.072Z,19.70
2018-07-31T18:06:03.431Z,20.00
2018-07-31T18:08:31.639Z,19.50
2018-07-31T18:10:59.842Z,20.20
2018-07-31T18:13:28.219Z,20.10
2018-07-31T18:15:56.425Z,20.50
2018-07-31T18:18:24.713Z,20.70
2018-07-31T18:20:52.906Z,21.20
2018-07-31T18:23:21.518Z,20.90
2018-07-31T18:25:49.704Z,21.30
2018-07-31T18:28:18.081Z,21.70
2018-07-31T18:30:46.295Z,21.60
2018-07-31T18:33:14.691Z,21.80
2018-07-31T18:35:43.450Z,21.70
2018-07-31T18:38:11.861Z,21.90
2018-07-31T18:40:40.125Z,22.10
2018-07-31T18:43:08.331Z,22.50
2018-07-31T18:45:36.534Z,23.00
2018-07-31T18:48:04.750Z,23.10
2018-07-31T18:50:33.000Z,23.20
2018-07-31T18:53:01.170Z,23.40
2018-07-31T18:55:29.457Z,23.50
2018-07-31T18:57:57.934Z,23.40
2018-07-31T19:00:26.161Z,23.80
2018-07-31T19:02:54.395Z,23.90
2018-07-31T19:05:22.593Z,24.00
2018-07-31T19:07:51.832Z,24.00
2018-07-31T19:10:20.105Z,23.80
2018-07-31T19:12:48.406Z,24.10
2018-07-31T19:15:16.646Z,24.40
2018-07-31T19:17:45.149Z,23.60
2018-07-31T19:20:13.430Z,23.60
2018-07-31T19:22:41.638Z,23.70
2018-07-31T19:25:10.025Z,23.60
2018-07-31T19:30:06.905Z,23.60
2018-07-31T19:32:35.261Z,23.60
2018-07-31T19:35:03.527Z,23.50
2018-07-31T19:37:31.911Z,23.40
2018-07-31T19:40:00.091Z,24.50
2018-07-31T19:42:28.324Z,24.50
2018-07-31T19:44:56.585Z,24.30
2018-07-31T19:47:24.882Z,24.40
2018-07-31T19:49:53.047Z,24.30
2018-07-31T19:52:21.438Z,24.20
2018-07-31T19:54:49.970Z,24.30
2018-07-31T19:57:18.222Z,24.20
2018-07-31T19:59:46.538Z,24.70
2018-07-31T20:02:14.761Z,24.80
2018-07-31T20:04:43.529Z,25.10
2018-07-31T20:07:12.306Z,25.40
2018-07-31T20:09:40.541Z,25.30
2018-07-31T20:12:08.732Z,25.00
2018-07-31T20:14:36.929Z,25.50
2018-07-31T20:17:05.661Z,25.80
2018-07-31T20:19:34.028Z,25.70
2018-07-31T20:22:02.289Z,25.70
2018-07-31T20:24:30.519Z,25.70
2018-07-31T20:26:58.864Z,25.90
2018-07-31T20:29:27.300Z,25.40
2018-07-31T20:31:55.696Z,25.60
2018-07-31T20:34:23.957Z,25.60
2018-07-31T20:36:52.175Z,25.60
2018-07-31T20:39:20.976Z,25.90
2018-07-31T20:41:49.886Z,25.80
2018-07-31T20:44:18.114Z,25.80
2018-07-31T20:46:46.309Z,25.90
2018-07-31T20:49:14.519Z,26.10
2018-07-31T20:51:42.927Z,25.90
2018-07-31T20:54:11.237Z,26.20
2018-07-31T20:56:39.444Z,26.30
2018-07-31T20:59:07.826Z,26.20
2018-07-31T21:01:36.122Z,26.20
2018-07-31T21:04:04.469Z,26.70
2018-07-31T21:06:32.921Z,26.80
2018-07-31T21:09:01.045Z,26.90
2018-07-31T21:11:29.378Z,26.70
2018-07-31T21:13:57.752Z,26.70
2018-07-31T21:16:26.269Z,26.50
2018-07-31T21:18:54.716Z,26.20
2018-07-31T21:21:22.894Z,25.90
2018-07-31T21:23:51.154Z,26.40
2018-07-31T21:26:20.118Z,26.20
2018-07-31T21:28:48.365Z,26.80
2018-07-31T21:31:16.527Z,26.50
2018-07-31T21:33:44.809Z,26.50
2018-07-31T21:36:13.158Z,26.60
2018-07-31T21:38:42.068Z,27.30
2018-07-31T21:41:10.269Z,27.20
2018-07-31T21:43:38.474Z,27.10
2018-07-31T21:46:06.705Z,26.80
2018-07-31T21:48:35.174Z,27.20
2018-07-31T21:51:03.385Z,27.30
2018-07-31T21:53:31.608Z,28.00
2018-07-31T21:55:59.797Z,27.90
2018-07-31T21:58:28.254Z,28.00
2018-07-31T22:01:01.881Z,28.00
2018-07-31T22:03:30.260Z,27.40
2018-07-31T22:05:58.582Z,27.70
2018-07-31T22:08:26.887Z,28.00
2018-07-31T22:10:55.082Z,28.10
2018-07-31T22:13:23.337Z,27.90
2018-07-31T22:15:51.510Z,28.10
2018-07-31T22:18:19.957Z,27.90
2018-07-31T22:20:48.138Z,28.10
2018-07-31T22:23:16.702Z,28.30
2018-07-31T22:25:44.998Z,29.40
2018-07-31T22:28:13.297Z,28.60
2018-07-31T22:30:41.629Z,28.70
2018-07-31T22:33:10.157Z,28.70
2018-07-31T22:35:38.382Z,28.60
2018-07-31T22:38:07.020Z,28.80
2018-07-31T22:40:36.102Z,29.00
2018-07-31T22:43:04.288Z,29.80
2018-07-31T22:45:32.759Z,29.60
2018-07-31T22:48:00.944Z,29.80
2018-07-31T22:52:57.437Z,29.40
2018-07-31T22:55:25.686Z,29.40
2018-07-31T22:57:53.893Z,29.40
2018-07-31T23:00:22.082Z,29.80
2018-07-31T23:02:50.338Z,29.50
2018-07-31T23:05:18.551Z,29.70
2018-07-31T23:07:46.777Z,29.50
2018-07-31T23:10:15.038Z,29.40
2018-07-31T23:12:44.195Z,29.80
2018-07-31T23:15:12.405Z,29.70
2018-07-31T23:17:40.575Z,29.80
2018-07-31T23:20:08.788Z,30.20
2018-07-31T23:22:45.770Z,30.10
2018-07-31T23:25:14.480Z,30.30
2018-07-31T23:27:43.303Z,30.40
2018-07-31T23:30:11.743Z,30.30
2018-07-31T23:32:40.369Z,30.00
2018-07-31T23:35:08.551Z,31.00
2018-07-31T23:37:36.838Z,30.30
2018-07-31T23:42:34.453Z,30.40
2018-07-31T23:45:02.677Z,30.20
2018-07-31T23:47:31.420Z,31.10
2018-07-31T23:50:00.394Z,31.30
2018-07-31T23:52:29.464Z,31.30
2018-07-31T23:54:57.793Z,31.20
2018-07-31T23:57:26.001Z,30.90
2018-07-31T23:59:54.217Z,30.70
